Portada
METAR-TAF:

METAR-TAF

Aeroports :

Tokushima, Japó

latitud: 34-08N, longitud: 134-37E, altitud: 8 m

Observació

L'informe es va fer fa 17 minuts, a les 20:00 UTC
Vent 4 kt del Nord-Oest
Temperatura 8°C
Humitat 100%
Pressió 1016 hPa
Visibilitat: 8000 m
Escasses núvols a una alçada de 1000 ft
Cel ennuvolat a una alçada de 3500 ft
Cel cobert a una alçada de 7000 ft
pluja

METAR: RJOS 182000Z 32004KT 8000 -RA FEW010 BKN035 OVC070 08/08 Q1016

Hora: 05:17 (20:17 UTC)


TAF: manca

Observacions i pronòstics meteorològics de més de 4000 aeroports (METAR i TAF).

Les estacions disponibles són els punts grocs i vermells al mapa.

Posi el ratolí al punt desitjat per veure el nom de l'estació.

Feu clic per veure les observacions i els pronòstics meteorològics.

Per canviar el mapa: feu clic els botons verds amb una creu de color negre per apropar; al botó verd amb un guió per allunyar la imatge; o en les fletxes verdes per a mapes adjacents.


METAR-TAF: